Time;durP1;ratioP1;P1;durP2;ratioP2;P2;SDS_P1;SDS_P2;PMS_P1;PMS_P2;Temp;Humidity;BMP_temperature;BMP_pressure;BME280_temperature;BME280_humidity;BME280_pressure;Samples;Min_cycle;Max_cycle;Signal;HPM_P1;HPM_P2
2022/11/23 00:01:18;;;;;;;;;;;9.30;99.90;;;;;;5070567;28;19929;-79
2022/11/23 00:03:46;;;;;;;;;;;9.30;99.90;;;;;;5038272;22;19925;-77
2022/11/23 00:06:13;;;;;;;;;;;9.30;99.90;;;;;;5027255;28;20388;-77
2022/11/23 00:08:40;;;;;;;;;;;9.30;99.90;;;;;;5030301;28;20829;-77
2022/11/23 00:11:08;;;;;;;;;;;9.40;99.90;;;;;;5030031;28;19976;-77
2022/11/23 00:13:35;;;;;;;;;;;9.50;99.90;;;;;;5029300;28;20377;-77
2022/11/23 00:16:05;;;;;;;;;;;9.40;99.90;;;;;;5026754;28;20426;-77
2022/11/23 00:18:32;;;;;;;;;;;9.50;99.90;;;;;;5035313;28;19940;-77
2022/11/23 00:20:59;;;;;;;;;;;9.50;99.90;;;;;;5028529;28;19937;-76
2022/11/23 00:23:26;;;;;;;;;;;9.50;99.90;;;;;;5026950;28;19956;-77
2022/11/23 00:25:53;;;;;;;;;;;9.50;99.90;;;;;;5030090;28;19929;-76
2022/11/23 00:28:21;;;;;;;;;;;9.50;99.90;;;;;;5031102;28;20377;-76
2022/11/23 00:30:49;;;;;;;;;;;9.60;99.90;;;;;;5037849;28;19929;-77
2022/11/23 00:33:16;;;;;;;;;;;9.60;99.90;;;;;;5029152;28;19936;-77
2022/11/23 00:35:43;;;;;;;;;;;9.60;99.90;;;;;;5032280;28;20471;-77
2022/11/23 00:38:10;;;;;;;;;;;9.60;99.90;;;;;;5042713;28;19928;-78
2022/11/23 00:40:36;;;;;;;;;;;9.60;99.90;;;;;;5033716;28;19930;-77
2022/11/23 00:43:03;;;;;;;;;;;9.60;99.90;;;;;;5035784;28;19929;-78
2022/11/23 00:45:32;;;;;;;;;;;9.60;99.90;;;;;;5031212;28;20060;-77
2022/11/23 00:47:59;;;;;;;;;;;9.60;99.90;;;;;;5024842;28;20908;-79
2022/11/23 00:50:26;;;;;;;;;;;9.60;99.90;;;;;;5030882;28;20471;-77
2022/11/23 00:52:53;;;;;;;;;;;9.70;99.90;;;;;;5028135;28;19928;-79
2022/11/23 00:55:22;;;;;;;;;;;9.60;99.90;;;;;;5021218;28;20271;-77
2022/11/23 00:57:49;;;;;;;;;;;9.60;99.90;;;;;;5030826;28;20005;-78
2022/11/23 01:00:16;;;;;;;;;;;9.60;99.90;;;;;;5032245;28;20282;-77
2022/11/23 01:02:45;;;;;;;;;;;9.60;99.90;;;;;;5030735;28;19929;-77
2022/11/23 01:05:11;;;;;;;;;;;9.50;99.90;;;;;;5027264;28;19964;-77
2022/11/23 01:07:38;;;;;;;;;;;9.50;99.90;;;;;;5031012;28;19933;-77
2022/11/23 01:10:07;;;;;;;;;;;9.50;99.90;;;;;;5033870;28;19933;-77
2022/11/23 01:12:34;;;;;;;;;;;9.50;99.90;;;;;;5026770;28;19999;-77
2022/11/23 01:15:01;;;;;;;;;;;9.50;99.90;;;;;;5027628;28;20014;-77
2022/11/23 01:17:28;;;;;;;;;;;9.50;99.90;;;;;;5036694;28;19968;-77
2022/11/23 01:19:57;;;;;;;;;;;9.50;99.90;;;;;;5031578;28;20404;-77
2022/11/23 01:22:24;;;;;;;;;;;9.50;99.90;;;;;;5033640;28;19932;-77
2022/11/23 01:24:51;;;;;;;;;;;9.50;99.90;;;;;;5029721;28;19926;-77
2022/11/23 01:27:18;;;;;;;;;;;9.50;99.90;;;;;;5030206;28;19964;-77
2022/11/23 01:29:45;;;;;;;;;;;9.50;99.90;;;;;;5030995;28;19941;-77
2022/11/23 01:32:11;;;;;;;;;;;9.60;99.90;;;;;;5023737;28;19936;-77
2022/11/23 01:34:38;;;;;;;;;;;9.60;99.90;;;;;;5032864;28;20018;-76
2022/11/23 01:37:07;;;;;;;;;;;9.60;99.90;;;;;;5023496;28;19940;-76
2022/11/23 01:39:34;;;;;;;;;;;9.60;99.90;;;;;;5034622;28;20079;-77
2022/11/23 01:42:01;;;;;;;;;;;9.60;99.90;;;;;;5026935;28;19932;-77
2022/11/23 01:44:29;;;;;;;;;;;9.60;99.90;;;;;;5028629;28;19939;-78
2022/11/23 01:46:57;;;;;;;;;;;9.70;99.90;;;;;;5034358;28;19933;-77
2022/11/23 01:49:25;;;;;;;;;;;9.70;99.90;;;;;;5028950;28;19973;-77
2022/11/23 01:51:54;;;;;;;;;;;9.70;99.90;;;;;;5031931;28;20633;-77
2022/11/23 01:54:25;;;;;;;;;;;9.60;99.90;;;;;;5030128;28;19929;-80
2022/11/23 01:56:54;;;;;;;;;;;9.70;99.90;;;;;;5035895;28;20038;-79
2022/11/23 01:59:22;;;;;;;;;;;9.70;99.90;;;;;;5028817;28;20415;-79
2022/11/23 02:01:49;;;;;;;;;;;9.70;99.90;;;;;;5028163;28;19932;-80
2022/11/23 02:04:19;;;;;;;;;;;9.70;99.90;;;;;;5027890;28;19928;-79
2022/11/23 02:06:47;;;;;;;;;;;9.70;99.90;;;;;;5028388;28;19929;-81
2022/11/23 02:09:14;;;;;;;;;;;9.70;99.90;;;;;;5030090;28;19937;-79
2022/11/23 02:11:43;;;;;;;;;;;9.70;99.90;;;;;;5027329;28;19929;-79
2022/11/23 02:14:14;;;;;;;;;;;9.70;99.90;;;;;;5033335;28;20004;-80
2022/11/23 02:16:41;;;;;;;;;;;9.80;99.90;;;;;;5034132;28;20016;-80
2022/11/23 02:19:13;;;;;;;;;;;9.80;99.90;;;;;;5036658;28;19936;-80
2022/11/23 02:21:41;;;;;;;;;;;9.80;99.90;;;;;;5032503;28;20043;-80
2022/11/23 02:24:14;;;;;;;;;;;9.80;99.90;;;;;;5031885;28;19933;-80
2022/11/23 02:26:44;;;;;;;;;;;9.80;99.90;;;;;;5034008;28;19929;-79
2022/11/23 02:29:12;;;;;;;;;;;9.80;99.90;;;;;;5038118;28;19929;-80
2022/11/23 02:31:39;;;;;;;;;;;9.90;99.90;;;;;;5033169;28;19935;-80
2022/11/23 02:34:06;;;;;;;;;;;9.90;99.90;;;;;;5034886;28;20031;-79
2022/11/23 02:36:37;;;;;;;;;;;9.90;99.90;;;;;;5031016;28;20435;-80
2022/11/23 02:39:09;;;;;;;;;;;9.90;99.90;;;;;;5032682;28;19974;-80
2022/11/23 02:41:37;;;;;;;;;;;10.00;99.90;;;;;;5034098;28;19925;-80
2022/11/23 02:44:07;;;;;;;;;;;10.00;99.90;;;;;;5034761;28;20494;-80
2022/11/23 02:46:34;;;;;;;;;;;9.90;99.90;;;;;;5031874;28;20035;-80
2022/11/23 02:49:00;;;;;;;;;;;10.00;99.90;;;;;;5033303;28;19981;-81
2022/11/23 02:51:27;;;;;;;;;;;10.00;99.90;;;;;;5035758;28;19937;-81
2022/11/23 02:53:54;;;;;;;;;;;10.00;99.90;;;;;;5034674;28;20254;-81
2022/11/23 02:56:21;;;;;;;;;;;10.00;99.90;;;;;;5040822;28;20008;-81
2022/11/23 02:58:48;;;;;;;;;;;10.00;99.90;;;;;;5033062;28;19933;-81
2022/11/23 03:01:17;;;;;;;;;;;10.00;99.90;;;;;;5034942;28;19925;-81
2022/11/23 03:03:46;;;;;;;;;;;10.10;99.90;;;;;;5033857;28;20035;-81
2022/11/23 03:06:13;;;;;;;;;;;10.00;99.90;;;;;;5035067;28;19940;-81
2022/11/23 03:08:40;;;;;;;;;;;10.10;99.90;;;;;;5015045;28;19940;-81
2022/11/23 03:11:08;;;;;;;;;;;10.10;99.90;;;;;;5034494;28;19958;-82
2022/11/23 03:13:35;;;;;;;;;;;10.00;99.90;;;;;;5030097;28;20468;-82
2022/11/23 03:16:02;;;;;;;;;;;10.10;99.90;;;;;;5036353;28;19936;-81
2022/11/23 03:18:30;;;;;;;;;;;10.00;99.90;;;;;;5033865;28;19984;-81
2022/11/23 03:21:01;;;;;;;;;;;10.00;99.90;;;;;;5040811;28;20793;-81
2022/11/23 03:23:28;;;;;;;;;;;10.00;99.90;;;;;;5045344;28;19933;-82
2022/11/23 03:25:56;;;;;;;;;;;10.00;99.90;;;;;;5032530;28;20073;-81
2022/11/23 03:28:25;;;;;;;;;;;9.90;99.90;;;;;;5035068;28;19955;-79
2022/11/23 03:30:52;;;;;;;;;;;9.90;99.90;;;;;;5031285;28;19933;-80
2022/11/23 03:33:22;;;;;;;;;;;9.90;99.90;;;;;;5030687;28;19991;-80
2022/11/23 03:35:50;;;;;;;;;;;9.90;99.90;;;;;;5035171;28;20036;-80
2022/11/23 03:38:20;;;;;;;;;;;9.80;99.90;;;;;;5030869;28;19933;-80
2022/11/23 03:40:47;;;;;;;;;;;9.80;99.90;;;;;;5012133;28;20011;-80
2022/11/23 03:43:23;;;;;;;;;;;9.70;99.90;;;;;;5028393;28;19983;-80
2022/11/23 03:45:50;;;;;;;;;;;9.70;99.90;;;;;;5033382;28;20173;-81
2022/11/23 03:48:17;;;;;;;;;;;9.70;99.90;;;;;;5031655;28;19940;-80
2022/11/23 03:50:45;;;;;;;;;;;9.70;99.90;;;;;;5030861;28;19941;-79
2022/11/23 03:53:13;;;;;;;;;;;9.70;99.90;;;;;;5030110;28;20452;-81
2022/11/23 03:55:40;;;;;;;;;;;9.70;99.90;;;;;;5031347;28;19932;-81
2022/11/23 03:58:08;;;;;;;;;;;9.70;99.90;;;;;;5032314;28;19939;-80
2022/11/23 04:00:36;;;;;;;;;;;9.70;99.90;;;;;;5036871;28;20312;-81
2022/11/23 04:03:04;;;;;;;;;;;9.70;99.90;;;;;;5036478;28;19929;-80
2022/11/23 04:05:49;;;;;;;;;;;9.70;99.90;;;;;;5035398;28;20022;-80
2022/11/23 04:08:36;;;;;;;;;;;9.70;99.90;;;;;;5038837;28;20696;-79
2022/11/23 04:11:09;;;;;;;;;;;9.70;99.90;;;;;;5025776;28;20313;-78
2022/11/23 04:13:38;;;;;;;;;;;9.70;99.90;;;;;;5032969;28;19936;-76
2022/11/23 04:16:06;;;;;;;;;;;9.70;99.90;;;;;;5030001;28;19947;-78
2022/11/23 04:18:33;;;;;;;;;;;9.60;99.90;;;;;;5033009;28;19939;-79
2022/11/23 04:21:00;;;;;;;;;;;9.70;99.90;;;;;;5032752;28;20023;-79
2022/11/23 04:23:27;;;;;;;;;;;9.60;99.90;;;;;;5035845;28;19968;-79
2022/11/23 04:25:55;;;;;;;;;;;9.60;99.90;;;;;;5035296;28;19937;-79
2022/11/23 04:28:23;;;;;;;;;;;9.60;99.90;;;;;;5032032;28;19929;-82
2022/11/23 04:30:51;;;;;;;;;;;9.60;99.90;;;;;;5037624;28;19941;-80
2022/11/23 04:33:19;;;;;;;;;;;9.70;99.90;;;;;;5032967;28;19929;-80
2022/11/23 04:35:46;;;;;;;;;;;9.70;99.90;;;;;;5034561;28;19929;-79
2022/11/23 04:38:14;;;;;;;;;;;9.70;99.90;;;;;;5033049;28;20296;-79
2022/11/23 04:40:41;;;;;;;;;;;9.70;99.90;;;;;;5033034;28;20024;-80
2022/11/23 04:43:10;;;;;;;;;;;9.60;99.90;;;;;;5013469;28;20412;-80
2022/11/23 04:45:39;;;;;;;;;;;9.60;99.90;;;;;;5022860;28;19934;-79
2022/11/23 04:48:09;;;;;;;;;;;9.60;99.90;;;;;;5441522;22;20182;-79
2022/11/23 04:50:37;;;;;;;;;;;9.60;99.90;;;;;;5046644;28;19964;-79
2022/11/23 04:53:04;;;;;;;;;;;9.60;99.90;;;;;;5036614;28;19939;-79
2022/11/23 04:55:39;;;;;;;;;;;9.50;99.90;;;;;;5046801;28;19932;-79
2022/11/23 04:58:06;;;;;;;;;;;9.50;99.90;;;;;;5046139;28;20049;-79
2022/11/23 05:00:36;;;;;;;;;;;9.50;99.90;;;;;;5043924;28;19929;-79
2022/11/23 05:03:04;;;;;;;;;;;9.50;99.90;;;;;;5045009;28;19966;-79
2022/11/23 05:05:36;;;;;;;;;;;9.50;99.90;;;;;;5036802;28;20006;-79
2022/11/23 05:08:04;;;;;;;;;;;9.40;99.90;;;;;;5034436;28;19947;-77
2022/11/23 05:10:57;;;;;;;;;;;9.40;99.90;;;;;;5040081;28;19924;-77
2022/11/23 05:13:25;;;;;;;;;;;9.40;99.90;;;;;;5047195;28;20308;-77
2022/11/23 05:15:53;;;;;;;;;;;9.40;99.90;;;;;;5047731;28;19929;-78
2022/11/23 05:18:25;;;;;;;;;;;10.20;99.90;;;;;;5035498;28;20034;-78
2022/11/23 05:20:53;;;;;;;;;;;9.40;99.90;;;;;;5046703;28;19932;-79
2022/11/23 05:23:20;;;;;;;;;;;9.40;99.90;;;;;;5048209;28;20366;-79
2022/11/23 05:25:47;;;;;;;;;;;9.40;99.90;;;;;;5057537;28;19995;-79
2022/11/23 05:28:19;;;;;;;;;;;9.40;99.90;;;;;;5049457;28;20160;-80
2022/11/23 05:30:46;;;;;;;;;;;9.40;99.90;;;;;;5041833;28;19936;-78
2022/11/23 05:33:15;;;;;;;;;;;9.40;99.90;;;;;;5043739;28;19925;-79
2022/11/23 05:35:43;;;;;;;;;;;9.40;99.90;;;;;;5033841;28;20003;-79
2022/11/23 05:38:10;;;;;;;;;;;9.30;99.90;;;;;;5038306;28;19929;-78
2022/11/23 05:40:37;;;;;;;;;;;9.30;99.90;;;;;;5042102;28;20415;-80
2022/11/23 05:43:05;;;;;;;;;;;9.30;99.90;;;;;;5036116;28;19925;-79
2022/11/23 05:45:32;;;;;;;;;;;9.40;99.90;;;;;;5038686;28;19935;-79
2022/11/23 05:47:59;;;;;;;;;;;9.40;99.90;;;;;;5044725;28;19991;-79
2022/11/23 05:50:53;;;;;;;;;;;9.30;99.90;;;;;;5045335;28;19944;-78
2022/11/23 05:53:36;;;;;;;;;;;9.30;99.90;;;;;;5043348;28;19929;-79
2022/11/23 05:56:32;;;;;;;;;;;9.30;99.90;;;;;;5040161;28;19933;-79
2022/11/23 05:59:07;;;;;;;;;;;9.30;99.90;;;;;;5037607;28;20371;-79
2022/11/23 06:01:36;;;;;;;;;;;9.30;99.90;;;;;;5046033;28;19925;-79
2022/11/23 06:04:06;;;;;;;;;;;9.30;99.90;;;;;;5047174;28;20011;-79
2022/11/23 06:06:38;;;;;;;;;;;9.30;99.90;;;;;;5037392;28;19928;-79
2022/11/23 06:09:05;;;;;;;;;;;9.30;99.90;;;;;;5045270;28;19932;-78
2022/11/23 06:11:35;;;;;;;;;;;9.30;99.90;;;;;;5031069;28;19971;-78
2022/11/23 06:14:08;;;;;;;;;;;9.30;99.90;;;;;;5045787;28;19928;-79
2022/11/23 06:16:35;;;;;;;;;;;9.30;99.90;;;;;;5030857;28;19925;-79
2022/11/23 06:19:13;;;;;;;;;;;9.30;99.90;;;;;;5040887;28;19959;-79
2022/11/23 06:21:43;;;;;;;;;;;9.30;99.90;;;;;;5038832;28;19932;-79
2022/11/23 06:24:11;;;;;;;;;;;9.20;99.90;;;;;;5041744;28;20047;-79
2022/11/23 06:26:39;;;;;;;;;;;9.20;99.90;;;;;;5042558;28;20020;-79
2022/11/23 06:29:07;;;;;;;;;;;9.20;99.90;;;;;;5043279;28;19975;-79
2022/11/23 06:31:35;;;;;;;;;;;7.90;99.90;;;;;;5036514;28;19925;-79
2022/11/23 06:34:02;;;;;;;;;;;9.20;99.90;;;;;;5041367;28;19936;-80
2022/11/23 06:36:31;;;;;;;;;;;9.20;99.90;;;;;;5046457;28;20323;-80
2022/11/23 06:39:00;;;;;;;;;;;9.20;99.90;;;;;;5051160;28;19925;-80
2022/11/23 06:41:28;;;;;;;;;;;9.20;99.90;;;;;;5058881;28;19929;-79
2022/11/23 06:43:55;;;;;;;;;;;9.20;99.90;;;;;;5042096;28;19978;-79
2022/11/23 06:46:35;;;;;;;;;;;9.20;99.90;;;;;;5045398;28;19925;-79
2022/11/23 06:49:02;;;;;;;;;;;9.20;99.90;;;;;;5035545;28;19984;-80
2022/11/23 06:51:29;;;;;;;;;;;9.20;99.90;;;;;;5045593;28;20015;-79
2022/11/23 06:53:56;;;;;;;;;;;9.20;99.90;;;;;;5048785;28;19928;-79
2022/11/23 06:56:25;;;;;;;;;;;9.20;99.90;;;;;;5041902;28;19913;-80
2022/11/23 06:58:52;;;;;;;;;;;9.20;99.90;;;;;;5045173;28;19937;-80
2022/11/23 07:01:37;;;;;;;;;;;9.20;99.90;;;;;;5046717;28;19925;-77
2022/11/23 07:04:07;;;;;;;;;;;9.20;99.90;;;;;;5048069;28;19991;-78
2022/11/23 07:06:43;;;;;;;;;;;9.10;99.90;;;;;;5048113;28;20043;-78
2022/11/23 07:09:22;;;;;;;;;;;9.10;99.90;;;;;;5044831;28;20340;-79
2022/11/23 07:12:03;;;;;;;;;;;8.50;99.90;;;;;;5049274;28;19933;-76
2022/11/23 07:14:31;;;;;;;;;;;9.10;99.90;;;;;;4984583;28;19925;-81
2022/11/23 07:16:59;;;;;;;;;;;9.10;99.90;;;;;;5049162;28;20357;-77
2022/11/23 07:19:28;;;;;;;;;;;9.20;99.90;;;;;;5047339;22;20388;-84
2022/11/23 07:21:59;;;;;;;;;;;9.20;99.90;;;;;;4993722;28;19932;-85
2022/11/23 07:24:40;;;;;;;;;;;9.20;99.90;;;;;;4983344;28;19924;-85
2022/11/23 07:27:21;;;;;;;;;;;9.20;99.90;;;;;;5029813;28;20059;-87
2022/11/23 07:29:54;;;;;;;;;;;9.20;99.90;;;;;;4967381;28;19959;-87
2022/11/23 07:32:26;;;;;;;;;;;9.70;99.90;;;;;;4974758;28;19928;-85
2022/11/23 07:34:55;;;;;;;;;;;9.30;99.90;;;;;;4950472;28;20349;-85
2022/11/23 07:37:23;;;;;;;;;;;9.20;99.90;;;;;;4892380;28;20048;-85
2022/11/23 07:39:51;;;;;;;;;;;9.30;99.90;;;;;;4889013;28;20093;-85
2022/11/23 07:42:21;;;;;;;;;;;9.30;99.90;;;;;;4911547;28;20022;-85
2022/11/23 07:44:48;;;;;;;;;;;9.40;99.90;;;;;;4906331;28;20127;-85
2022/11/23 07:47:15;;;;;;;;;;;9.40;99.90;;;;;;4905081;28;19924;-86
2022/11/23 07:49:42;;;;;;;;;;;9.40;99.90;;;;;;4907206;28;19925;-87
2022/11/23 07:52:13;;;;;;;;;;;9.50;99.90;;;;;;4906438;28;20732;-86
2022/11/23 07:54:40;;;;;;;;;;;9.50;99.90;;;;;;4928585;28;19925;-87
2022/11/23 07:57:09;;;;;;;;;;;9.60;99.90;;;;;;4926261;28;19963;-87
2022/11/23 07:59:37;;;;;;;;;;;9.60;99.90;;;;;;4923886;28;19970;-87
2022/11/23 08:02:04;;;;;;;;;;;9.60;99.90;;;;;;4931730;28;20345;-88
2022/11/23 08:04:31;;;;;;;;;;;9.60;99.90;;;;;;5099424;28;19934;-86
2022/11/23 08:06:59;;;;;;;;;;;9.70;99.90;;;;;;5102524;28;20046;-85
2022/11/23 08:09:26;;;;;;;;;;;9.80;99.90;;;;;;5089993;28;20020;-84
2022/11/23 08:11:53;;;;;;;;;;;9.80;99.90;;;;;;5096197;28;20030;-84
2022/11/23 08:14:20;;;;;;;;;;;9.90;99.90;;;;;;5085202;28;20015;-86
2022/11/23 08:16:50;;;;;;;;;;;10.00;99.90;;;;;;5095561;28;20023;-86
2022/11/23 08:19:16;;;;;;;;;;;10.00;99.90;;;;;;5086458;28;19924;-85
2022/11/23 08:21:44;;;;;;;;;;;10.00;99.90;;;;;;5096742;28;19966;-84
2022/11/23 08:24:11;;;;;;;;;;;10.10;99.90;;;;;;5081097;28;19924;-85
2022/11/23 08:26:38;;;;;;;;;;;10.20;99.90;;;;;;5097569;28;19924;-85
2022/11/23 08:29:05;;;;;;;;;;;10.20;99.90;;;;;;5097874;28;19924;-86
2022/11/23 08:31:32;;;;;;;;;;;10.30;99.90;;;;;;5088101;28;19939;-85
2022/11/23 08:34:00;;;;;;;;;;;10.50;99.90;;;;;;5083280;28;19929;-86
2022/11/23 08:36:27;;;;;;;;;;;10.60;99.90;;;;;;5082715;28;19925;-86
2022/11/23 08:38:54;;;;;;;;;;;10.50;99.90;;;;;;5080560;28;19932;-86
2022/11/23 08:41:21;;;;;;;;;;;10.60;99.90;;;;;;5085875;28;19925;-86
2022/11/23 08:43:48;;;;;;;;;;;10.60;99.90;;;;;;5075529;28;19939;-86
2022/11/23 08:46:19;;;;;;;;;;;10.90;99.90;;;;;;5075525;28;20388;-86
2022/11/23 08:48:51;;;;;;;;;;;10.70;99.90;;;;;;5076384;28;20029;-85
2022/11/23 08:51:21;;;;;;;;;;;10.70;99.90;;;;;;5075405;28;19935;-86
2022/11/23 08:53:48;;;;;;;;;;;10.70;99.90;;;;;;5076374;28;20322;-86
2022/11/23 08:56:15;;;;;;;;;;;10.70;99.90;;;;;;5077745;28;20012;-85
2022/11/23 08:58:42;;;;;;;;;;;10.70;99.90;;;;;;5098277;28;19985;-88
2022/11/23 09:01:09;;;;;;;;;;;10.70;99.90;;;;;;5083855;28;19920;-86
2022/11/23 09:03:37;;;;;;;;;;;10.70;99.90;;;;;;5096854;28;19986;-85
2022/11/23 09:06:04;;;;;;;;;;;10.80;99.90;;;;;;5086357;28;20756;-85
2022/11/23 09:08:32;;;;;;;;;;;10.80;99.90;;;;;;5092068;28;19935;-87
2022/11/23 09:11:00;;;;;;;;;;;10.80;99.90;;;;;;5093328;28;20397;-86
2022/11/23 09:13:27;;;;;;;;;;;10.80;99.90;;;;;;5074156;28;19924;-86
2022/11/23 09:15:57;;;;;;;;;;;10.90;99.90;;;;;;5079053;28;20406;-86
2022/11/23 09:18:24;;;;;;;;;;;10.90;99.90;;;;;;5082806;28;19924;-87
2022/11/23 09:20:51;;;;;;;;;;;11.00;99.90;;;;;;5079789;28;19928;-85
2022/11/23 09:23:18;;;;;;;;;;;11.00;99.90;;;;;;5089253;28;19964;-84
2022/11/23 09:25:48;;;;;;;;;;;11.10;99.90;;;;;;5086889;28;19938;-87
2022/11/23 09:28:18;;;;;;;;;;;12.70;99.90;;;;;;5091968;28;19935;-86
2022/11/23 09:30:45;;;;;;;;;;;11.20;99.90;;;;;;5076520;28;19928;-86
2022/11/23 09:33:12;;;;;;;;;;;11.30;99.90;;;;;;5092168;28;19931;-86
2022/11/23 09:35:39;;;;;;;;;;;11.30;99.90;;;;;;5092738;28;19928;-85
2022/11/23 09:38:06;;;;;;;;;;;11.40;99.90;;;;;;5092276;28;20006;-86
2022/11/23 09:40:34;;;;;;;;;;;11.40;99.90;;;;;;5087431;28;20224;-86
2022/11/23 09:43:10;;;;;;;;;;;11.50;99.90;;;;;;5085371;28;20404;-86
2022/11/23 09:45:40;;;;;;;;;;;11.50;99.90;;;;;;5087957;28;20389;-86
2022/11/23 09:48:31;;;;;;;;;;;11.60;99.90;;;;;;5093326;28;19924;-87
2022/11/23 09:51:01;;;;;;;;;;;11.60;99.90;;;;;;5065069;28;19924;-85
2022/11/23 09:53:31;;;;;;;;;;;11.70;99.90;;;;;;5086532;28;19928;-87
2022/11/23 09:55:58;;;;;;;;;;;11.70;99.90;;;;;;5088323;28;19928;-88
2022/11/23 09:58:29;;;;;;;;;;;11.80;99.90;;;;;;5089971;28;19931;-86
2022/11/23 10:00:59;;;;;;;;;;;11.80;99.90;;;;;;5078399;28;19963;-86
2022/11/23 10:03:28;;;;;;;;;;;11.90;99.90;;;;;;5078907;28;19924;-87
2022/11/23 10:06:01;;;;;;;;;;;11.20;99.90;;;;;;5079839;28;19951;-86
2022/11/23 10:08:32;;;;;;;;;;;12.00;99.90;;;;;;5080614;28;20027;-87
2022/11/23 10:11:04;;;;;;;;;;;12.00;99.90;;;;;;5089344;28;19924;-86
2022/11/23 10:13:35;;;;;;;;;;;12.10;99.90;;;;;;5080340;28;19925;-86
2022/11/23 10:16:20;;;;;;;;;;;12.20;99.90;;;;;;5089485;28;19955;-86
2022/11/23 10:18:50;;;;;;;;;;;12.20;99.90;;;;;;5077448;28;20025;-86
2022/11/23 10:21:21;;;;;;;;;;;12.20;99.90;;;;;;5072138;28;20002;-86
2022/11/23 10:23:53;;;;;;;;;;;12.30;99.90;;;;;;5071901;28;19966;-86
2022/11/23 10:26:21;;;;;;;;;;;12.40;99.90;;;;;;5075441;28;19999;-87
2022/11/23 10:28:49;;;;;;;;;;;12.40;99.90;;;;;;5101609;28;19919;-86
2022/11/23 10:31:18;;;;;;;;;;;12.50;99.90;;;;;;5087737;28;19925;-88
2022/11/23 10:33:49;;;;;;;;;;;12.50;99.90;;;;;;5097536;28;19935;-87
2022/11/23 10:36:16;;;;;;;;;;;12.40;99.90;;;;;;5098376;28;20022;-86
2022/11/23 10:38:43;;;;;;;;;;;12.20;99.90;;;;;;5101106;28;19928;-89
2022/11/23 10:41:12;;;;;;;;;;;12.20;99.90;;;;;;5115949;28;20380;-87
2022/11/23 10:43:43;;;;;;;;;;;12.30;99.90;;;;;;5103851;28;19935;-86
2022/11/23 10:46:25;;;;;;;;;;;12.40;99.90;;;;;;5076786;28;19925;-86
2022/11/23 10:48:53;;;;;;;;;;;12.50;99.90;;;;;;5089956;28;19978;-85
2022/11/23 10:51:23;;;;;;;;;;;12.50;99.90;;;;;;5080034;28;19928;-85
2022/11/23 10:53:52;;;;;;;;;;;12.70;99.90;;;;;;5078633;28;20433;-85
2022/11/23 10:56:19;;;;;;;;;;;13.20;99.90;;;;;;5095237;28;19928;-85
2022/11/23 10:58:46;;;;;;;;;;;12.90;99.90;;;;;;5090489;28;19969;-86
2022/11/23 11:01:14;;;;;;;;;;;12.90;99.90;;;;;;5097020;28;19930;-86
2022/11/23 11:03:42;;;;;;;;;;;12.90;99.90;;;;;;5088945;28;19931;-84
2022/11/23 11:06:09;;;;;;;;;;;12.90;99.90;;;;;;5092132;28;19982;-87
2022/11/23 11:08:46;;;;;;;;;;;13.00;99.90;;;;;;5096404;28;19928;-85
2022/11/23 11:11:22;;;;;;;;;;;13.10;99.90;;;;;;5093835;28;20011;-88
2022/11/23 11:13:48;;;;;;;;;;;13.20;99.90;;;;;;5098906;28;19978;-85
2022/11/23 11:16:19;;;;;;;;;;;13.20;99.90;;;;;;5093118;28;19936;-87
2022/11/23 11:18:47;;;;;;;;;;;13.20;99.90;;;;;;5103031;28;19939;-86
2022/11/23 11:21:18;;;;;;;;;;;13.30;99.90;;;;;;5089827;28;20360;-85
2022/11/23 11:23:50;;;;;;;;;;;13.30;99.90;;;;;;5088403;28;19950;-88
2022/11/23 11:26:20;;;;;;;;;;;13.40;99.90;;;;;;5095147;28;20017;-85
2022/11/23 11:28:48;;;;;;;;;;;13.40;99.90;;;;;;5080377;28;19934;-86
2022/11/23 11:31:24;;;;;;;;;;;13.50;99.90;;;;;;5091088;28;19939;-85
2022/11/23 11:33:55;;;;;;;;;;;13.50;99.90;;;;;;5077044;28;19950;-85
2022/11/23 11:36:23;;;;;;;;;;;13.50;99.90;;;;;;5090820;28;20297;-86
2022/11/23 11:38:53;;;;;;;;;;;13.50;99.90;;;;;;5083493;28;19928;-85
2022/11/23 11:41:24;;;;;;;;;;;13.40;99.90;;;;;;5091234;28;19950;-85
2022/11/23 11:43:53;;;;;;;;;;;13.40;99.90;;;;;;5088279;28;19928;-86
2022/11/23 11:46:22;;;;;;;;;;;13.50;99.90;;;;;;5097048;28;20049;-85
2022/11/23 11:48:51;;;;;;;;;;;14.10;99.90;;;;;;5094053;28;20050;-85
2022/11/23 11:51:22;;;;;;;;;;;13.60;99.90;;;;;;5098891;28;20019;-85
2022/11/23 11:53:53;;;;;;;;;;;13.60;99.90;;;;;;5092720;28;20429;-86
2022/11/23 11:56:23;;;;;;;;;;;13.00;99.90;;;;;;5094310;28;19938;-87
2022/11/23 11:58:54;;;;;;;;;;;13.00;99.90;;;;;;5090506;28;19932;-85
2022/11/23 12:01:29;;;;;;;;;;;12.80;99.90;;;;;;5094264;28;19927;-85
2022/11/23 12:03:57;;;;;;;;;;;12.70;99.90;;;;;;5086552;28;19928;-85
2022/11/23 12:06:28;;;;;;;;;;;14.00;99.90;;;;;;5093292;28;20025;-85
2022/11/23 12:08:58;;;;;;;;;;;12.80;99.90;;;;;;5087505;28;20016;-85
2022/11/23 12:11:25;;;;;;;;;;;12.80;99.90;;;;;;5088769;28;20421;-86
2022/11/23 12:13:55;;;;;;;;;;;12.70;99.90;;;;;;5109737;28;20541;-85
2022/11/23 12:16:28;;;;;;;;;;;12.80;99.90;;;;;;5097061;28;19999;-85
2022/11/23 12:19:06;;;;;;;;;;;12.60;99.90;;;;;;5095477;28;20297;-85
2022/11/23 12:21:43;;;;;;;;;;;12.50;99.90;;;;;;5088138;28;20262;-85
2022/11/23 12:24:16;;;;;;;;;;;12.40;99.90;;;;;;5093200;28;20001;-87
2022/11/23 12:26:46;;;;;;;;;;;12.40;99.90;;;;;;5091930;28;19924;-86
2022/11/23 12:29:23;;;;;;;;;;;12.40;99.90;;;;;;5094353;28;19932;-86
2022/11/23 12:31:52;;;;;;;;;;;12.50;99.90;;;;;;5093848;28;19940;-86
2022/11/23 12:34:36;;;;;;;;;;;12.50;99.90;;;;;;5096825;28;19991;-87
2022/11/23 12:37:11;;;;;;;;;;;12.50;99.90;;;;;;5092649;28;19981;-87
2022/11/23 12:39:53;;;;;;;;;;;12.50;99.90;;;;;;5095769;28;19924;-86
2022/11/23 12:42:24;;;;;;;;;;;12.60;99.90;;;;;;5097084;28;19932;-85
2022/11/23 12:45:09;;;;;;;;;;;12.60;99.90;;;;;;5089141;28;19932;-86
2022/11/23 12:47:41;;;;;;;;;;;12.60;99.90;;;;;;5087818;28;19932;-85
2022/11/23 12:50:14;;;;;;;;;;;12.70;99.90;;;;;;5090545;28;19936;-85
2022/11/23 12:52:51;;;;;;;;;;;12.80;99.90;;;;;;5106614;28;19988;-85
2022/11/23 12:55:20;;;;;;;;;;;12.60;99.90;;;;;;5111046;28;19925;-84
2022/11/23 12:57:50;;;;;;;;;;;12.40;99.90;;;;;;5103576;28;19942;-84
2022/11/23 13:00:18;;;;;;;;;;;12.20;99.90;;;;;;5102886;28;19932;-85
2022/11/23 13:03:18;;;;;;;;;;;12.10;99.90;;;;;;5093919;28;19935;-85
2022/11/23 13:05:55;;;;;;;;;;;12.10;99.90;;;;;;5091588;28;20017;-86
2022/11/23 13:08:33;;;;;;;;;;;10.80;99.90;;;;;;5096382;28;19986;-84
2022/11/23 13:11:10;;;;;;;;;;;12.20;99.90;;;;;;5092952;28;19940;-87
2022/11/23 13:13:47;;;;;;;;;;;12.30;99.90;;;;;;5092501;28;19939;-84
2022/11/23 13:16:24;;;;;;;;;;;12.30;99.90;;;;;;5088069;28;20016;-84
2022/11/23 13:19:06;;;;;;;;;;;12.30;99.90;;;;;;5098712;28;19971;-86
2022/11/23 13:21:35;;;;;;;;;;;12.30;99.90;;;;;;5095294;28;19953;-86
2022/11/23 13:24:04;;;;;;;;;;;12.30;99.90;;;;;;5092751;28;20026;-84
2022/11/23 13:26:31;;;;;;;;;;;12.50;99.90;;;;;;5088951;28;19932;-85
2022/11/23 13:29:00;;;;;;;;;;;12.30;99.90;;;;;;5099123;28;19939;-84
2022/11/23 13:31:29;;;;;;;;;;;12.30;99.90;;;;;;5094463;28;19932;-84
2022/11/23 13:33:57;;;;;;;;;;;12.30;99.90;;;;;;5092015;28;19932;-86
2022/11/23 13:36:36;;;;;;;;;;;12.30;99.90;;;;;;5090085;28;19975;-85
2022/11/23 13:39:04;;;;;;;;;;;12.20;99.90;;;;;;5085623;28;19928;-86
2022/11/23 13:41:55;;;;;;;;;;;12.20;99.90;;;;;;5096265;28;19928;-85
2022/11/23 13:44:24;;;;;;;;;;;12.10;99.90;;;;;;5097243;28;19924;-85
2022/11/23 13:46:59;;;;;;;;;;;11.90;99.90;;;;;;5091114;28;19940;-84
2022/11/23 13:49:34;;;;;;;;;;;12.00;99.90;;;;;;5081970;28;19968;-85
2022/11/23 13:52:05;;;;;;;;;;;11.90;99.90;;;;;;5083195;28;19933;-85
2022/11/23 13:54:33;;;;;;;;;;;11.80;99.90;;;;;;5083739;28;20438;-86
2022/11/23 13:57:02;;;;;;;;;;;11.70;99.90;;;;;;5076264;28;19942;-85
2022/11/23 13:59:30;;;;;;;;;;;11.40;99.90;;;;;;5083639;28;19929;-86
2022/11/23 14:02:01;;;;;;;;;;;11.40;99.90;;;;;;5085853;28;19932;-85
2022/11/23 14:04:29;;;;;;;;;;;11.30;99.90;;;;;;5080754;28;19959;-85
2022/11/23 14:06:57;;;;;;;;;;;11.20;99.90;;;;;;5086079;28;19932;-85
2022/11/23 14:09:32;;;;;;;;;;;11.10;99.90;;;;;;5100063;28;20022;-87
2022/11/23 14:12:03;;;;;;;;;;;11.00;99.90;;;;;;5087269;28;19976;-84
2022/11/23 14:14:33;;;;;;;;;;;11.00;99.90;;;;;;5085944;28;19924;-84
2022/11/23 14:17:14;;;;;;;;;;;10.90;99.90;;;;;;5089140;28;19924;-84
2022/11/23 14:19:46;;;;;;;;;;;10.90;99.90;;;;;;5084198;28;19928;-85
2022/11/23 14:22:19;;;;;;;;;;;10.80;99.90;;;;;;5093641;28;19924;-87
2022/11/23 14:25:02;;;;;;;;;;;10.80;99.90;;;;;;5101708;28;19932;-86
2022/11/23 14:30:31;;;;;;;;;;;10.60;99.90;;;;;;5100659;28;20055;-87
2022/11/23 14:33:12;;;;;;;;;;;10.60;99.90;;;;;;5099983;28;19962;-85
2022/11/23 14:35:43;;;;;;;;;;;10.50;99.90;;;;;;5106789;28;19957;-87
2022/11/23 14:38:24;;;;;;;;;;;10.50;99.90;;;;;;5097406;28;19939;-87
2022/11/23 14:40:58;;;;;;;;;;;10.50;99.90;;;;;;5097252;28;19932;-84
2022/11/23 14:43:27;;;;;;;;;;;10.40;99.90;;;;;;5108885;28;20150;-85